createdAt,value
2022-12-14T00:01:11.156Z,-23062.63
2022-12-14T00:03:14.602Z,-23061.03
2022-12-14T00:05:19.782Z,-23071.75
2022-12-14T00:07:22.545Z,-23069.69
2022-12-14T00:09:25.221Z,-23066.31
2022-12-14T00:11:28.535Z,-23068.25
2022-12-14T00:13:32.588Z,-23067.44
2022-12-14T00:15:37.692Z,-23070.31
2022-12-14T00:17:40.796Z,-23074.50
2022-12-14T00:19:43.504Z,-23074.81
2022-12-14T00:21:51.580Z,-23072.41
2022-12-14T00:23:55.342Z,-23070.31
2022-12-14T00:25:58.087Z,-23067.75
2022-12-14T00:28:00.813Z,-23068.88
2022-12-14T00:30:05.466Z,-23066.16
2022-12-14T00:32:08.186Z,-23064.72
2022-12-14T00:34:10.840Z,-23069.53
2022-12-14T00:36:14.006Z,-23066.16
2022-12-14T00:38:16.688Z,-23068.25
2022-12-14T00:40:19.450Z,-23069.69
2022-12-14T00:42:22.055Z,-23069.69
2022-12-14T00:44:24.650Z,-23067.28
2022-12-14T00:46:28.724Z,-23063.91
2022-12-14T00:48:32.574Z,-23062.97
2022-12-14T00:50:35.706Z,-23067.13
2022-12-14T00:52:38.350Z,-23069.69
2022-12-14T00:54:41.054Z,-23067.75
2022-12-14T00:56:43.784Z,-23070.97
2022-12-14T00:58:51.785Z,-23072.25
2022-12-14T01:01:00.493Z,-23065.19
2022-12-14T01:03:05.556Z,-23071.44
2022-12-14T01:05:09.074Z,-23065.53
2022-12-14T01:07:11.754Z,-23071.28
2022-12-14T01:09:14.878Z,-23073.22
2022-12-14T01:11:17.572Z,-23071.28
2022-12-14T01:13:20.157Z,-23065.84
2022-12-14T01:15:22.884Z,-23066.00
2022-12-14T01:17:25.507Z,-23074.16
2022-12-14T01:19:29.606Z,-23076.09
2022-12-14T01:21:32.864Z,-23068.72
2022-12-14T01:23:35.544Z,-23068.41
2022-12-14T01:25:38.256Z,-23071.28
2022-12-14T01:27:40.950Z,-23071.59
2022-12-14T01:29:43.687Z,-23071.28
2022-12-14T01:31:48.591Z,-23073.84
2022-12-14T01:33:51.642Z,-23071.13
2022-12-14T01:35:55.612Z,-23072.88
2022-12-14T01:37:58.387Z,-23075.94
2022-12-14T01:40:01.090Z,-23075.44
2022-12-14T01:42:03.855Z,-23079.44
2022-12-14T01:44:39.670Z,-23073.53
2022-12-14T01:46:46.569Z,-23078.97
2022-12-14T01:48:52.165Z,-23072.41
2022-12-14T01:50:56.202Z,-23078.66
2022-12-14T01:53:02.462Z,-23083.28
2022-12-14T01:55:08.601Z,-23082.50
2022-12-14T01:57:12.310Z,-23079.63
2022-12-14T01:59:19.108Z,-23075.59
2022-12-14T02:01:21.815Z,-23083.63
2022-12-14T02:03:28.418Z,-23084.09
2022-12-14T02:05:34.468Z,-23080.09
2022-12-14T02:07:39.900Z,-23083.13
2022-12-14T02:09:45.174Z,-23085.06
2022-12-14T02:11:56.951Z,-23082.34
2022-12-14T02:13:59.601Z,-23079.63
2022-12-14T02:16:02.401Z,-23083.44
2022-12-14T02:18:08.983Z,-23083.78
2022-12-14T02:20:12.964Z,-23083.13
2022-12-14T02:22:39.999Z,-23077.38
2022-12-14T02:25:01.487Z,-23073.69
2022-12-14T02:27:13.551Z,-23076.72
2022-12-14T02:29:45.275Z,-23080.41
2022-12-14T02:31:55.484Z,-23081.06
2022-12-14T02:34:06.284Z,-23080.09
2022-12-14T02:36:18.784Z,-23078.31
2022-12-14T02:38:36.287Z,-23078.00
2022-12-14T02:40:45.970Z,-23075.44
2022-12-14T02:43:02.885Z,-23075.44
2022-12-14T02:45:13.866Z,-23076.41
2022-12-14T02:47:24.297Z,-23073.38
2022-12-14T02:49:43.111Z,-23079.63
2022-12-14T02:51:57.098Z,-23075.78
2022-12-14T02:54:03.373Z,-23081.22
2022-12-14T02:56:10.526Z,-23074.16
2022-12-14T02:58:15.311Z,-23079.94
2022-12-14T03:00:20.494Z,-23071.94
2022-12-14T03:02:24.569Z,-23077.06
2022-12-14T03:04:27.257Z,-23076.72
2022-12-14T03:06:30.222Z,-23079.44
2022-12-14T03:08:35.493Z,-23076.72
2022-12-14T03:10:46.140Z,-23075.59
2022-12-14T03:12:55.539Z,-23074.66
2022-12-14T03:15:00.564Z,-23073.22
2022-12-14T03:17:15.185Z,-23071.94
2022-12-14T03:19:24.663Z,-23074.66
2022-12-14T03:21:31.048Z,-23075.13
2022-12-14T03:23:37.336Z,-23078.31
2022-12-14T03:25:46.117Z,-23073.38
2022-12-14T03:27:56.437Z,-23072.56
2022-12-14T03:30:03.260Z,-23074.16
2022-12-14T03:32:11.396Z,-23074.81
2022-12-14T03:34:16.819Z,-23070.97
2022-12-14T03:36:26.622Z,-23071.94
2022-12-14T03:38:35.045Z,-23076.09
2022-12-14T03:40:43.392Z,-23077.06
2022-12-14T03:42:58.222Z,-23074.16
2022-12-14T03:45:05.502Z,-23073.03
2022-12-14T03:47:22.238Z,-23075.44
2022-12-14T03:49:35.843Z,-23068.72
2022-12-14T03:51:47.488Z,-23073.53
2022-12-14T03:53:57.548Z,-23075.44
2022-12-14T03:56:05.127Z,-23074.00
2022-12-14T03:58:29.856Z,-23071.59
2022-12-14T04:00:38.156Z,-23075.78
2022-12-14T04:02:48.816Z,-23069.38
2022-12-14T04:04:58.015Z,-23068.41
2022-12-14T04:07:09.463Z,-23072.88
2022-12-14T04:09:24.634Z,-23071.28
2022-12-14T04:11:49.887Z,-23071.59
2022-12-14T04:14:15.719Z,-23070.16
2022-12-14T04:16:43.162Z,-23072.25
2022-12-14T04:19:00.887Z,-23076.41
2022-12-14T04:21:10.261Z,-23076.41
2022-12-14T04:23:41.055Z,-23073.22
2022-12-14T04:26:04.873Z,-23067.75
2022-12-14T04:28:33.107Z,-23072.09
2022-12-14T04:30:39.363Z,-23073.53
2022-12-14T04:32:46.855Z,-23071.59
2022-12-14T04:34:55.282Z,-23068.25
2022-12-14T04:37:01.042Z,-23071.28
2022-12-14T04:39:07.375Z,-23070.31
2022-12-14T04:41:15.079Z,-23068.25
2022-12-14T04:43:21.885Z,-23070.97
2022-12-14T04:45:29.185Z,-23070.31
2022-12-14T04:47:44.761Z,-23068.56
2022-12-14T04:49:53.381Z,-23070.81
2022-12-14T04:52:05.577Z,-23076.72
2022-12-14T04:54:13.898Z,-23075.13
2022-12-14T04:56:24.211Z,-23074.16
2022-12-14T04:58:30.574Z,-23073.84
2022-12-14T05:00:38.919Z,-23076.91
2022-12-14T05:02:54.390Z,-23074.16
2022-12-14T05:05:09.520Z,-23076.25
2022-12-14T05:07:20.688Z,-23083.44
2022-12-14T05:09:28.314Z,-23081.22
2022-12-14T05:14:04.692Z,-23082.66
2022-12-14T05:16:08.339Z,-23082.81
2022-12-14T05:18:11.799Z,-23081.38
2022-12-14T05:20:17.878Z,-23080.25
2022-12-14T05:22:20.708Z,-23080.25
2022-12-14T05:24:23.412Z,-23087.31
2022-12-14T05:26:26.130Z,-23082.50
2022-12-14T05:28:28.931Z,-23084.41
2022-12-14T05:30:31.690Z,-23087.94
2022-12-14T05:32:34.483Z,-23086.19
2022-12-14T05:34:37.112Z,-23081.22
2022-12-14T05:36:41.117Z,-23076.56
2022-12-14T05:38:43.785Z,-23085.84
2022-12-14T05:40:46.707Z,-23076.91
2022-12-14T05:42:55.260Z,-23082.81
2022-12-14T05:44:58.598Z,-23076.56
2022-12-14T05:47:01.308Z,-23086.19
2022-12-14T05:49:04.013Z,-23081.53
2022-12-14T05:51:08.451Z,-23081.22
2022-12-14T05:53:12.475Z,-23079.94
2022-12-14T05:55:15.223Z,-23089.38
2022-12-14T05:57:17.992Z,-23089.22
2022-12-14T05:59:20.637Z,-23089.84
2022-12-14T06:01:23.353Z,-23092.91
2022-12-14T06:03:26.588Z,-23088.56
2022-12-14T06:05:29.413Z,-23084.56
2022-12-14T06:07:32.140Z,-23088.56
2022-12-14T06:09:36.152Z,-23086.97
2022-12-14T06:11:40.460Z,-23083.28
2022-12-14T06:13:44.395Z,-23090.19
2022-12-14T06:15:47.020Z,-23094.34
2022-12-14T06:17:50.395Z,-23089.53
2022-12-14T06:19:53.099Z,-23094.66
2022-12-14T06:21:56.796Z,-23097.38
2022-12-14T06:24:00.403Z,-23087.44
2022-12-14T06:26:04.702Z,-23093.69
2022-12-14T06:28:07.363Z,-23086.00
2022-12-14T06:30:12.145Z,-23078.66
2022-12-14T06:32:14.941Z,-23079.94
2022-12-14T06:34:18.303Z,-23083.78
2022-12-14T06:36:23.935Z,-23088.09
2022-12-14T06:38:26.775Z,-23089.06
2022-12-14T06:40:29.469Z,-23103.78
2022-12-14T06:42:33.647Z,-23104.25
2022-12-14T06:44:37.421Z,-23092.41
2022-12-14T06:46:40.809Z,-23091.94
2022-12-14T06:48:43.862Z,-23093.06
2022-12-14T06:50:46.538Z,-23084.41
2022-12-14T06:52:50.206Z,-23086.00
2022-12-14T06:54:52.848Z,-23087.78
2022-12-14T06:56:55.495Z,-23094.34
2022-12-14T06:58:59.552Z,-23095.31
2022-12-14T07:01:03.652Z,-23086.19
2022-12-14T07:03:06.533Z,-23088.09
2022-12-14T07:05:09.747Z,-23089.22
2022-12-14T07:07:12.427Z,-23088.75
2022-12-14T07:09:15.660Z,-23089.53
2022-12-14T07:11:18.643Z,-23102.66
2022-12-14T07:13:22.081Z,-23095.47
2022-12-14T07:15:26.126Z,-23097.84
2022-12-14T07:17:28.885Z,-23091.94
2022-12-14T07:19:31.620Z,-23088.91
2022-12-14T07:21:34.508Z,-23087.31
2022-12-14T07:23:38.781Z,-23091.13
2022-12-14T07:25:41.467Z,-23100.75
2022-12-14T07:27:44.151Z,-23100.75
2022-12-14T07:29:46.914Z,-23098.19
2022-12-14T07:31:51.023Z,-23102.81
2022-12-14T07:33:54.382Z,-23099.47
2022-12-14T07:36:02.904Z,-23101.69
2022-12-14T07:38:05.604Z,-23090.81
2022-12-14T07:40:09.996Z,-23085.84
2022-12-14T07:42:12.927Z,-23093.53
2022-12-14T07:44:15.772Z,-23090.19
2022-12-14T07:46:20.438Z,-23098.03
2022-12-14T07:48:24.493Z,-23093.38
2022-12-14T07:50:27.147Z,-23090.81
2022-12-14T07:52:35.717Z,-23100.59
2022-12-14T07:54:40.035Z,-23105.22
2022-12-14T07:56:44.671Z,-23104.59
2022-12-14T07:58:47.542Z,-23100.09
2022-12-14T08:00:50.172Z,-23104.91
2022-12-14T08:02:56.015Z,-23109.38
2022-12-14T08:04:59.991Z,-23097.84
2022-12-14T08:07:02.695Z,-23095.31
2022-12-14T08:09:06.426Z,-23101.38
2022-12-14T08:11:10.116Z,-23105.22
2022-12-14T08:13:12.747Z,-23106.81
2022-12-14T08:15:15.422Z,-23110.50
2022-12-14T08:17:18.036Z,-23107.13
2022-12-14T08:19:21.387Z,-23108.41
2022-12-14T08:21:26.545Z,-23113.88
2022-12-14T08:23:29.542Z,-23115.78
2022-12-14T08:25:32.474Z,-23116.59
2022-12-14T08:27:35.112Z,-23118.19
2022-12-14T08:29:37.845Z,-23120.25
2022-12-14T08:31:40.665Z,-23118.34
2022-12-14T08:33:45.211Z,-23106.97
2022-12-14T08:35:47.912Z,-23118.81
2022-12-14T08:37:53.192Z,-23112.25
2022-12-14T08:39:55.917Z,-23109.38
2022-12-14T08:41:58.594Z,-23119.63
2022-12-14T08:44:03.551Z,-23110.66
2022-12-14T08:46:07.055Z,-23120.41
2022-12-14T08:48:10.037Z,-23114.19
2022-12-14T08:50:12.733Z,-23117.22
2022-12-14T08:52:16.318Z,-23115.47
2022-12-14T08:54:20.354Z,-23124.09
2022-12-14T08:56:25.588Z,-23114.97
2022-12-14T08:58:28.251Z,-23114.19
2022-12-14T09:00:31.032Z,-23115.47
2022-12-14T09:02:33.878Z,-23122.81
2022-12-14T09:04:36.680Z,-23118.03
2022-12-14T09:06:40.521Z,-23123.47
2022-12-14T09:08:43.591Z,-23125.38
2022-12-14T09:10:51.651Z,-23124.41
2022-12-14T09:12:54.308Z,-23121.69
2022-12-14T09:14:57.105Z,-23125.06
2022-12-14T09:16:59.904Z,-23132.41
2022-12-14T09:19:02.658Z,-23127.78
2022-12-14T09:21:05.768Z,-23125.84
2022-12-14T09:23:08.362Z,-23131.13
2022-12-14T09:25:11.423Z,-23130.50
2022-12-14T09:27:15.390Z,-23123.63
2022-12-14T09:29:19.754Z,-23124.75
2022-12-14T09:31:25.083Z,-23123.78
2022-12-14T09:33:29.424Z,-23117.53
2022-12-14T09:35:32.431Z,-23124.09
2022-12-14T09:37:35.491Z,-23132.72
2022-12-14T09:39:38.367Z,-23125.06
2022-12-14T09:41:53.190Z,-23121.84
2022-12-14T09:44:06.387Z,-23122.66
2022-12-14T09:46:32.999Z,-23129.06
2022-12-14T09:48:36.171Z,-23120.75
2022-12-14T09:50:40.721Z,-23116.09
2022-12-14T09:52:46.705Z,-23110.66
2022-12-14T09:54:50.256Z,-23110.34
2022-12-14T09:56:54.163Z,-23116.75
2022-12-14T09:58:59.351Z,-23124.41
2022-12-14T10:01:39.995Z,-23108.41
2022-12-14T10:03:55.414Z,-23103.78
2022-12-14T10:06:16.691Z,-23106.19
2022-12-14T10:08:24.297Z,-23108.09
2022-12-14T10:10:33.796Z,-23109.69
2022-12-14T10:12:51.483Z,-23113.88
2022-12-14T10:15:05.872Z,-23110.03
2022-12-14T10:17:16.861Z,-23115.31
2022-12-14T10:19:33.289Z,-23109.69
2022-12-14T10:21:46.208Z,-23124.25
2022-12-14T10:23:55.822Z,-23119.31
2022-12-14T10:26:03.410Z,-23122.81
2022-12-14T10:28:14.381Z,-23117.06
2022-12-14T10:30:20.098Z,-23118.19
2022-12-14T10:32:31.473Z,-23130.97
2022-12-14T10:34:35.743Z,-23135.63
2022-12-14T10:36:45.803Z,-23132.41
2022-12-14T10:38:57.208Z,-23131.47
2022-12-14T10:41:06.779Z,-23124.75
2022-12-14T10:43:30.322Z,-23125.53
2022-12-14T10:45:42.516Z,-23129.22
2022-12-14T10:47:50.774Z,-23139.78
2022-12-14T10:50:02.563Z,-23140.72
2022-12-14T10:52:12.326Z,-23142.00
2022-12-14T10:54:26.422Z,-23140.25
2022-12-14T10:56:33.978Z,-23146.31
2022-12-14T10:58:36.713Z,-23146.00
2022-12-14T11:00:39.729Z,-23158.78
2022-12-14T11:02:45.004Z,-23146.31
2022-12-14T11:04:56.437Z,-23155.44
2022-12-14T11:07:01.136Z,-23151.28
2022-12-14T11:09:21.168Z,-23146.81
2022-12-14T11:11:25.619Z,-23138.50
2022-12-14T11:13:28.408Z,-23134.03
2022-12-14T11:15:34.458Z,-23136.25
2022-12-14T11:17:39.023Z,-23129.69
2022-12-14T11:19:41.881Z,-23128.41
2022-12-14T11:21:49.802Z,-23138.19
2022-12-14T11:23:55.556Z,-23143.78
2022-12-14T11:26:00.270Z,-23129.38
2022-12-14T11:28:06.863Z,-23134.66
2022-12-14T11:30:17.484Z,-23134.66
2022-12-14T11:32:24.814Z,-23127.28
2022-12-14T11:34:34.491Z,-23126.66
2022-12-14T11:36:39.596Z,-23130.34
2022-12-14T11:38:43.635Z,-23134.34
2022-12-14T11:40:47.043Z,-23134.34
2022-12-14T11:42:51.201Z,-23137.84
2022-12-14T11:44:55.145Z,-23130.66
2022-12-14T11:47:03.642Z,-23137.84
2022-12-14T11:49:19.330Z,-23139.94
2022-12-14T11:51:22.042Z,-23134.50
2022-12-14T11:53:24.737Z,-23134.66
2022-12-14T11:55:29.889Z,-23137.06
2022-12-14T11:57:36.069Z,-23132.09
2022-12-14T11:59:42.053Z,-23128.75
2022-12-14T12:01:45.293Z,-23132.25
2022-12-14T12:03:50.712Z,-23132.41
2022-12-14T12:05:55.090Z,-23132.91
2022-12-14T12:07:59.939Z,-23145.06
2022-12-14T12:10:07.771Z,-23154.47
2022-12-14T12:12:19.218Z,-23151.91
2022-12-14T12:14:30.621Z,-23158.00
2022-12-14T12:16:35.450Z,-23152.09
2022-12-14T12:18:46.494Z,-23153.84
2022-12-14T12:20:54.985Z,-23153.53
2022-12-14T12:23:05.706Z,-23151.44
2022-12-14T12:25:25.936Z,-23157.03
2022-12-14T12:27:33.153Z,-23162.94
2022-12-14T12:29:40.405Z,-23152.88
2022-12-14T12:31:49.353Z,-23151.59
2022-12-14T12:33:59.079Z,-23159.75
2022-12-14T12:36:05.660Z,-23160.56
2022-12-14T12:38:14.925Z,-23170.47
2022-12-14T12:40:20.649Z,-23173.19
2022-12-14T12:42:29.745Z,-23176.06
2022-12-14T12:44:50.211Z,-23174.94
2022-12-14T12:49:25.308Z,-23169.66
2022-12-14T12:51:32.190Z,-23176.53
2022-12-14T12:53:39.621Z,-23178.13
2022-12-14T12:55:47.211Z,-23178.63
2022-12-14T12:57:54.561Z,-23167.25
2022-12-14T12:59:59.991Z,-23161.19
2022-12-14T13:02:17.449Z,-23162.16
2022-12-14T13:04:28.863Z,-23164.56
2022-12-14T13:06:35.722Z,-23161.84
2022-12-14T13:08:41.105Z,-23162.47
2022-12-14T13:11:17.234Z,-23157.34
2022-12-14T13:13:14.663Z,-23160.56
2022-12-14T13:15:24.491Z,-23159.75
2022-12-14T13:17:35.355Z,-23151.28
2022-12-14T13:19:51.710Z,-23152.72
2022-12-14T13:21:59.204Z,-23156.06
2022-12-14T13:24:12.189Z,-23159.59
2022-12-14T13:26:56.749Z,-23151.13
2022-12-14T13:29:05.253Z,-23145.69
2022-12-14T13:31:18.079Z,-23149.84
2022-12-14T13:33:45.735Z,-23155.91
2022-12-14T13:36:20.837Z,-23147.75
2022-12-14T13:38:41.449Z,-23160.56
2022-12-14T13:41:06.164Z,-23153.19
2022-12-14T13:43:30.131Z,-23151.44
2022-12-14T13:45:38.774Z,-23148.72
2022-12-14T13:47:45.105Z,-23142.66
2022-12-14T13:50:18.438Z,-23147.44
2022-12-14T13:52:31.462Z,-23155.59
2022-12-14T13:54:37.076Z,-23158.63
2022-12-14T13:56:40.636Z,-23155.75
2022-12-14T13:58:46.340Z,-23165.50
2022-12-14T14:00:58.304Z,-23167.09
2022-12-14T14:03:02.452Z,-23166.47
2022-12-14T14:05:45.889Z,-23164.38
2022-12-14T14:07:54.274Z,-23161.84
2022-12-14T14:10:04.200Z,-23155.44
2022-12-14T14:12:35.770Z,-23155.44
2022-12-14T14:14:51.786Z,-23144.56
2022-12-14T14:16:57.914Z,-23146.16
2022-12-14T14:19:05.565Z,-23141.53
2022-12-14T14:21:32.886Z,-23146.16
2022-12-14T14:23:39.076Z,-23150.47
2022-12-14T14:25:46.888Z,-23145.69
2022-12-14T14:27:56.142Z,-23137.22
2022-12-14T14:29:59.231Z,-23138.34
2022-12-14T14:32:03.601Z,-23138.00
2022-12-14T14:34:06.326Z,-23139.44
2022-12-14T14:36:11.772Z,-23134.66
2022-12-14T14:38:27.324Z,-23141.06
2022-12-14T14:41:06.638Z,-23131.47
2022-12-14T14:43:05.524Z,-23130.97
2022-12-14T14:45:23.979Z,-23136.41
2022-12-14T14:47:31.101Z,-23126.34
2022-12-14T14:49:39.375Z,-23131.63
2022-12-14T14:51:42.078Z,-23129.22
2022-12-14T14:53:45.434Z,-23133.69
2022-12-14T14:56:04.690Z,-23133.06
2022-12-14T14:58:22.519Z,-23124.56
2022-12-14T15:00:25.720Z,-23125.84
2022-12-14T15:02:34.300Z,-23129.53
2022-12-14T15:04:45.508Z,-23126.97
2022-12-14T15:06:51.875Z,-23129.06
2022-12-14T15:09:00.087Z,-23131.13
2022-12-14T15:11:06.095Z,-23126.97
2022-12-14T15:13:17.866Z,-23123.47
2022-12-14T15:15:27.926Z,-23126.97
2022-12-14T15:17:30.881Z,-23125.38
2022-12-14T15:19:35.990Z,-23125.53
2022-12-14T15:21:39.274Z,-23128.75
2022-12-14T15:23:49.239Z,-23131.63
2022-12-14T15:26:01.327Z,-23130.97
2022-12-14T15:28:08.715Z,-23130.19
2022-12-14T15:30:20.882Z,-23130.81
2022-12-14T15:32:26.196Z,-23129.06
2022-12-14T15:34:29.206Z,-23126.97
2022-12-14T15:36:35.417Z,-23124.41
2022-12-14T15:38:38.390Z,-23128.91
2022-12-14T15:40:41.220Z,-23131.13
2022-12-14T15:42:48.215Z,-23124.41
2022-12-14T15:44:51.414Z,-23126.66
2022-12-14T15:46:55.518Z,-23127.47
2022-12-14T15:49:01.288Z,-23126.97
2022-12-14T15:51:06.930Z,-23131.78
2022-12-14T15:53:14.555Z,-23126.97
2022-12-14T15:55:33.209Z,-23124.91
2022-12-14T15:57:39.211Z,-23124.09
2022-12-14T15:59:45.002Z,-23125.22
2022-12-14T16:02:04.755Z,-23128.91
2022-12-14T16:04:16.220Z,-23128.91
2022-12-14T16:06:19.877Z,-23127.94
2022-12-14T16:08:23.465Z,-23131.13
2022-12-14T16:10:31.820Z,-23135.13
2022-12-14T16:12:45.034Z,-23124.75
2022-12-14T16:14:54.162Z,-23125.06
2022-12-14T16:16:57.387Z,-23126.97
2022-12-14T16:19:20.401Z,-23128.25
2022-12-14T16:21:29.982Z,-23121.38
2022-12-14T16:23:39.196Z,-23123.47
2022-12-14T16:25:52.414Z,-23125.06
2022-12-14T16:27:55.676Z,-23121.22
2022-12-14T16:30:22.898Z,-23119.78
2022-12-14T16:32:25.663Z,-23123.78
2022-12-14T16:34:28.646Z,-23123.13
2022-12-14T16:36:36.571Z,-23124.41
2022-12-14T16:38:42.597Z,-23115.47
2022-12-14T16:40:54.096Z,-23119.47
2022-12-14T16:42:56.848Z,-23116.91
2022-12-14T16:44:59.610Z,-23110.03
2022-12-14T16:47:26.195Z,-23111.31
2022-12-14T16:49:33.301Z,-23109.53
2022-12-14T16:54:04.904Z,-23105.53
2022-12-14T16:56:17.178Z,-23108.59
2022-12-14T16:58:19.855Z,-23108.75
2022-12-14T17:00:26.344Z,-23111.13
2022-12-14T17:02:33.267Z,-23112.91
2022-12-14T17:04:38.666Z,-23111.94
2022-12-14T17:06:48.563Z,-23112.56
2022-12-14T17:08:51.643Z,-23108.75
2022-12-14T17:10:55.134Z,-23113.53
2022-12-14T17:12:58.913Z,-23110.03
2022-12-14T17:15:04.409Z,-23115.47
2022-12-14T17:17:07.446Z,-23109.69
2022-12-14T17:19:18.778Z,-23113.88
2022-12-14T17:21:26.186Z,-23117.38
2022-12-14T17:23:30.977Z,-23116.75
2022-12-14T17:25:34.213Z,-23122.03
2022-12-14T17:27:37.012Z,-23113.06
2022-12-14T17:29:39.668Z,-23119.13
2022-12-14T17:31:50.082Z,-23116.09
2022-12-14T17:33:54.796Z,-23118.03
2022-12-14T17:35:57.550Z,-23117.38
2022-12-14T17:38:00.471Z,-23115.94
2022-12-14T17:40:05.775Z,-23114.97
2022-12-14T17:42:12.026Z,-23108.09
2022-12-14T17:44:16.213Z,-23116.75
2022-12-14T17:46:18.917Z,-23107.13
2022-12-14T17:48:22.229Z,-23108.41
2022-12-14T17:50:25.901Z,-23108.09
2022-12-14T17:52:31.681Z,-23104.59
2022-12-14T17:54:34.853Z,-23110.03
2022-12-14T17:56:38.867Z,-23106.34
2022-12-14T17:58:45.408Z,-23113.06
2022-12-14T18:01:04.613Z,-23106.81
2022-12-14T18:03:07.671Z,-23107.47
2022-12-14T18:05:18.591Z,-23112.25
2022-12-14T18:07:21.239Z,-23112.75
2022-12-14T18:09:23.894Z,-23114.97
2022-12-14T18:11:27.938Z,-23114.81
2022-12-14T18:13:32.604Z,-23105.22
2022-12-14T18:15:38.942Z,-23100.41
2022-12-14T18:17:41.736Z,-23104.91
2022-12-14T18:19:44.835Z,-23100.59
2022-12-14T18:21:50.563Z,-23107.13
2022-12-14T18:23:53.709Z,-23106.97
2022-12-14T18:25:58.969Z,-23108.75
2022-12-14T18:28:02.800Z,-23111.94
2022-12-14T18:30:08.511Z,-23103.16
2022-12-14T18:32:14.795Z,-23106.97
2022-12-14T18:34:17.473Z,-23102.66
2022-12-14T18:36:21.586Z,-23102.97
2022-12-14T18:38:24.698Z,-23108.41
2022-12-14T18:40:29.624Z,-23113.88
2022-12-14T18:42:32.282Z,-23111.47
2022-12-14T18:44:34.981Z,-23106.03
2022-12-14T18:46:39.291Z,-23107.63
2022-12-14T18:48:43.195Z,-23109.53
2022-12-14T18:50:46.037Z,-23110.34
2022-12-14T18:52:52.758Z,-23108.25
2022-12-14T18:54:55.428Z,-23107.13
2022-12-14T18:56:58.033Z,-23103.94
2022-12-14T18:59:01.416Z,-23098.66
2022-12-14T19:01:04.422Z,-23100.91
2022-12-14T19:03:08.528Z,-23100.59
2022-12-14T19:05:11.767Z,-23100.41
2022-12-14T19:07:15.670Z,-23106.19
2022-12-14T19:09:18.447Z,-23101.53
2022-12-14T19:11:30.331Z,-23099.28
2022-12-14T19:13:33.344Z,-23100.41
2022-12-14T19:15:36.852Z,-23099.28
2022-12-14T19:17:39.655Z,-23101.38
2022-12-14T19:19:44.723Z,-23098.50
2022-12-14T19:21:47.470Z,-23096.91
2022-12-14T19:23:50.242Z,-23098.19
2022-12-14T19:25:52.848Z,-23096.91
2022-12-14T19:30:22.785Z,-23103.94
2022-12-14T19:32:25.793Z,-23107.63
2022-12-14T19:34:28.446Z,-23111.78
2022-12-14T19:36:32.467Z,-23112.75
2022-12-14T19:38:35.679Z,-23107.78
2022-12-14T19:40:38.328Z,-23108.41
2022-12-14T19:42:41.221Z,-23101.88
2022-12-14T19:44:44.094Z,-23103.94
2022-12-14T19:46:51.944Z,-23102.81
2022-12-14T19:48:55.653Z,-23102.03
2022-12-14T19:50:58.313Z,-23104.91
2022-12-14T19:53:02.329Z,-23101.53
2022-12-14T19:55:05.450Z,-23103.31
2022-12-14T19:57:08.504Z,-23104.09
2022-12-14T19:59:11.243Z,-23107.47
2022-12-14T20:01:16.231Z,-23101.88
2022-12-14T20:03:19.131Z,-23103.94
2022-12-14T20:05:22.253Z,-23105.22
2022-12-14T20:07:24.902Z,-23106.50
2022-12-14T20:09:28.989Z,-23102.34
2022-12-14T20:11:31.609Z,-23102.50
2022-12-14T20:13:34.767Z,-23103.31
2022-12-14T20:15:38.769Z,-23101.69
2022-12-14T20:17:41.433Z,-23101.69
2022-12-14T20:19:44.536Z,-23102.19
2022-12-14T20:21:47.176Z,-23099.28
2022-12-14T20:23:50.158Z,-23103.78
2022-12-14T20:25:54.204Z,-23103.47
2022-12-14T20:27:56.860Z,-23097.84
2022-12-14T20:29:59.668Z,-23096.91
2022-12-14T20:32:02.369Z,-23093.06
2022-12-14T20:34:06.499Z,-23100.75
2022-12-14T20:36:10.055Z,-23102.97
2022-12-14T20:38:12.813Z,-23102.66
2022-12-14T20:40:15.614Z,-23104.25
2022-12-14T20:42:19.572Z,-23103.94
2022-12-14T20:44:22.303Z,-23107.31
2022-12-14T20:46:28.479Z,-23097.53
2022-12-14T20:48:31.879Z,-23095.63
2022-12-14T20:50:35.104Z,-23096.91
2022-12-14T20:52:38.284Z,-23101.06
2022-12-14T20:54:40.884Z,-23101.69
2022-12-14T20:56:44.924Z,-23098.50
2022-12-14T20:58:53.585Z,-23095.94
2022-12-14T21:00:56.293Z,-23098.34
2022-12-14T21:02:59.077Z,-23099.16
2022-12-14T21:05:01.856Z,-23101.53
2022-12-14T21:07:04.469Z,-23097.69
2022-12-14T21:09:11.529Z,-23096.56
2022-12-14T21:11:27.974Z,-23100.25
2022-12-14T21:13:31.105Z,-23101.38
2022-12-14T21:15:36.272Z,-23101.06
2022-12-14T21:17:39.067Z,-23100.59
2022-12-14T21:19:42.054Z,-23092.75
2022-12-14T21:21:51.470Z,-23093.69
2022-12-14T21:23:56.148Z,-23095.94
2022-12-14T21:26:02.483Z,-23096.75
2022-12-14T21:28:05.526Z,-23096.41
2022-12-14T21:30:10.441Z,-23098.34
2022-12-14T21:32:15.034Z,-23096.25
2022-12-14T21:34:20.217Z,-23101.69
2022-12-14T21:36:23.179Z,-23094.34
2022-12-14T21:38:25.944Z,-23094.19
2022-12-14T21:40:46.137Z,-23095.94
2022-12-14T21:42:50.437Z,-23098.81
2022-12-14T21:44:54.302Z,-23100.41
2022-12-14T21:46:57.335Z,-23102.66
2022-12-14T21:49:01.514Z,-23101.06
2022-12-14T21:51:07.406Z,-23098.97
2022-12-14T21:53:10.086Z,-23088.91
2022-12-14T21:55:13.081Z,-23091.94
2022-12-14T21:57:34.816Z,-23089.84
2022-12-14T21:59:39.919Z,-23087.31
2022-12-14T22:01:43.366Z,-23094.97
2022-12-14T22:03:46.155Z,-23092.75
2022-12-14T22:05:53.603Z,-23097.69
2022-12-14T22:07:56.631Z,-23099.78
2022-12-14T22:09:59.434Z,-23093.06
2022-12-14T22:12:02.104Z,-23097.06
2022-12-14T22:14:05.419Z,-23101.53
2022-12-14T22:16:08.745Z,-23100.59
2022-12-14T22:18:12.334Z,-23096.09
2022-12-14T22:20:15.417Z,-23094.03
2022-12-14T22:22:19.477Z,-23095.63
2022-12-14T22:24:24.091Z,-23100.25
2022-12-14T22:26:26.736Z,-23100.59
2022-12-14T22:28:29.419Z,-23096.91
2022-12-14T22:30:32.206Z,-23090.81
2022-12-14T22:32:34.866Z,-23092.75
2022-12-14T22:34:37.632Z,-23094.97
2022-12-14T22:36:40.285Z,-23096.09
2022-12-14T22:38:44.803Z,-23100.09
2022-12-14T22:40:47.553Z,-23097.69
2022-12-14T22:42:50.220Z,-23089.53
2022-12-14T22:44:53.210Z,-23086.19
2022-12-14T22:46:55.923Z,-23089.84
2022-12-14T22:48:58.654Z,-23087.63
2022-12-14T22:51:02.218Z,-23093.38
2022-12-14T22:53:05.026Z,-23089.53
2022-12-14T22:55:09.965Z,-23095.63
2022-12-14T22:57:17.974Z,-23094.97
2022-12-14T22:59:25.039Z,-23093.22
2022-12-14T23:01:28.266Z,-23095.63
2022-12-14T23:03:31.651Z,-23100.75
2022-12-14T23:05:34.696Z,-23099.63
2022-12-14T23:07:37.778Z,-23092.09
2022-12-14T23:09:58.058Z,-23098.50
2022-12-14T23:12:21.859Z,-23096.25
2022-12-14T23:14:42.457Z,-23098.97
2022-12-14T23:17:02.805Z,-23101.06
2022-12-14T23:19:22.985Z,-23097.69
2022-12-14T23:21:43.334Z,-23094.34
2022-12-14T23:24:04.850Z,-23099.16
2022-12-14T23:26:25.231Z,-23101.38
2022-12-14T23:28:50.032Z,-23104.75
2022-12-14T23:31:10.779Z,-23104.75
2022-12-14T23:33:31.487Z,-23095.78
2022-12-14T23:35:51.892Z,-23093.84
2022-12-14T23:38:12.240Z,-23100.41
2022-12-14T23:40:32.920Z,-23103.63
2022-12-14T23:42:53.226Z,-23100.59
2022-12-14T23:45:14.711Z,-23099.63
2022-12-14T23:47:34.959Z,-23105.38
2022-12-14T23:49:55.138Z,-23098.81
2022-12-14T23:52:15.524Z,-23097.84
2022-12-14T23:54:35.985Z,-23100.41
2022-12-14T23:56:56.193Z,-23103.78
2022-12-14T23:59:18.682Z,-23102.34
